sensor_id;sensor_type;location;lat;lon;timestamp;temperature;humidity
25208;DHT22;13153;52.316;21.166;2022-07-06T00:01:48;19.50;99.90
25208;DHT22;13153;52.316;21.166;2022-07-06T00:04:16;19.50;99.90
25208;DHT22;13153;52.316;21.166;2022-07-06T00:06:43;19.50;99.90
25208;DHT22;13153;52.316;21.166;2022-07-06T00:09:09;19.50;99.90
25208;DHT22;13153;52.316;21.166;2022-07-06T00:11:34;19.50;99.90
25208;DHT22;13153;52.316;21.166;2022-07-06T00:14:00;19.50;99.90
25208;DHT22;13153;52.316;21.166;2022-07-06T00:16:26;19.50;99.90
25208;DHT22;13153;52.316;21.166;2022-07-06T00:18:52;19.40;99.90
25208;DHT22;13153;52.316;21.166;2022-07-06T00:21:18;19.40;99.90
25208;DHT22;13153;52.316;21.166;2022-07-06T00:23:43;19.40;99.90
25208;DHT22;13153;52.316;21.166;2022-07-06T00:26:09;19.40;99.90
25208;DHT22;13153;52.316;21.166;2022-07-06T00:28:36;19.40;99.90
25208;DHT22;13153;52.316;21.166;2022-07-06T00:31:01;19.40;99.90
25208;DHT22;13153;52.316;21.166;2022-07-06T00:33:27;19.40;99.90
25208;DHT22;13153;52.316;21.166;2022-07-06T00:35:53;19.50;99.90
25208;DHT22;13153;52.316;21.166;2022-07-06T00:38:19;19.50;99.90
25208;DHT22;13153;52.316;21.166;2022-07-06T00:40:45;19.40;99.90
25208;DHT22;13153;52.316;21.166;2022-07-06T00:43:11;19.40;99.90
25208;DHT22;13153;52.316;21.166;2022-07-06T00:45:36;19.40;99.90
25208;DHT22;13153;52.316;21.166;2022-07-06T00:48:02;19.40;99.90
25208;DHT22;13153;52.316;21.166;2022-07-06T00:50:28;19.40;99.90
25208;DHT22;13153;52.316;21.166;2022-07-06T00:52:56;19.40;99.90
25208;DHT22;13153;52.316;21.166;2022-07-06T00:55:32;19.40;99.90
25208;DHT22;13153;52.316;21.166;2022-07-06T00:58:03;19.40;99.90
25208;DHT22;13153;52.316;21.166;2022-07-06T01:00:30;19.40;99.90
25208;DHT22;13153;52.316;21.166;2022-07-06T01:02:57;19.40;99.90
25208;DHT22;13153;52.316;21.166;2022-07-06T01:05:23;19.40;99.90
25208;DHT22;13153;52.316;21.166;2022-07-06T01:07:51;19.40;99.90
25208;DHT22;13153;52.316;21.166;2022-07-06T01:10:19;19.40;99.90
25208;DHT22;13153;52.316;21.166;2022-07-06T01:12:47;19.40;99.90
25208;DHT22;13153;52.316;21.166;2022-07-06T01:15:21;19.40;99.90
25208;DHT22;13153;52.316;21.166;2022-07-06T01:17:49;19.40;99.90
25208;DHT22;13153;52.316;21.166;2022-07-06T01:22:50;19.30;99.90
25208;DHT22;13153;52.316;21.166;2022-07-06T01:25:17;19.30;99.90
25208;DHT22;13153;52.316;21.166;2022-07-06T01:27:43;19.30;99.90
25208;DHT22;13153;52.316;21.166;2022-07-06T01:30:14;19.30;99.90
25208;DHT22;13153;52.316;21.166;2022-07-06T01:32:42;19.20;99.90
25208;DHT22;13153;52.316;21.166;2022-07-06T01:35:10;19.20;99.90
25208;DHT22;13153;52.316;21.166;2022-07-06T01:37:37;19.20;99.90
25208;DHT22;13153;52.316;21.166;2022-07-06T01:40:06;19.10;99.90
25208;DHT22;13153;52.316;21.166;2022-07-06T01:42:33;19.20;99.90
25208;DHT22;13153;52.316;21.166;2022-07-06T01:45:00;19.10;99.90
25208;DHT22;13153;52.316;21.166;2022-07-06T01:47:26;19.20;99.90
25208;DHT22;13153;52.316;21.166;2022-07-06T01:49:52;19.20;99.90
25208;DHT22;13153;52.316;21.166;2022-07-06T01:52:18;19.20;99.90
25208;DHT22;13153;52.316;21.166;2022-07-06T01:54:43;19.20;99.90
25208;DHT22;13153;52.316;21.166;2022-07-06T01:57:09;19.20;99.90
25208;DHT22;13153;52.316;21.166;2022-07-06T01:59:35;19.10;99.90
25208;DHT22;13153;52.316;21.166;2022-07-06T02:02:01;19.10;99.90
25208;DHT22;13153;52.316;21.166;2022-07-06T02:04:27;19.10;99.90
25208;DHT22;13153;52.316;21.166;2022-07-06T02:06:53;19.10;99.90
25208;DHT22;13153;52.316;21.166;2022-07-06T02:09:18;19.00;99.90
25208;DHT22;13153;52.316;21.166;2022-07-06T02:11:44;19.00;99.90
25208;DHT22;13153;52.316;21.166;2022-07-06T02:14:10;19.00;99.90
25208;DHT22;13153;52.316;21.166;2022-07-06T02:16:37;18.90;99.90
25208;DHT22;13153;52.316;21.166;2022-07-06T02:19:02;18.90;99.90
25208;DHT22;13153;52.316;21.166;2022-07-06T02:21:28;18.90;99.90
25208;DHT22;13153;52.316;21.166;2022-07-06T02:23:54;18.90;99.90
25208;DHT22;13153;52.316;21.166;2022-07-06T02:26:20;18.80;99.90
25208;DHT22;13153;52.316;21.166;2022-07-06T02:28:46;18.70;99.90
25208;DHT22;13153;52.316;21.166;2022-07-06T02:31:13;18.70;99.90
25208;DHT22;13153;52.316;21.166;2022-07-06T02:33:40;18.70;99.90
25208;DHT22;13153;52.316;21.166;2022-07-06T02:36:06;18.70;99.90
25208;DHT22;13153;52.316;21.166;2022-07-06T02:38:32;18.70;99.90
25208;DHT22;13153;52.316;21.166;2022-07-06T02:40:58;18.70;99.90
25208;DHT22;13153;52.316;21.166;2022-07-06T02:43:24;18.60;99.90
25208;DHT22;13153;52.316;21.166;2022-07-06T02:45:50;18.70;99.90
25208;DHT22;13153;52.316;21.166;2022-07-06T02:48:16;18.70;99.90
25208;DHT22;13153;52.316;21.166;2022-07-06T02:50:42;18.70;99.90
25208;DHT22;13153;52.316;21.166;2022-07-06T02:53:08;18.60;99.90
25208;DHT22;13153;52.316;21.166;2022-07-06T02:55:34;18.60;99.90
25208;DHT22;13153;52.316;21.166;2022-07-06T02:58:00;18.60;99.90
25208;DHT22;13153;52.316;21.166;2022-07-06T03:00:26;18.60;99.90
25208;DHT22;13153;52.316;21.166;2022-07-06T03:02:52;18.50;99.90
25208;DHT22;13153;52.316;21.166;2022-07-06T03:05:17;18.50;99.90
25208;DHT22;13153;52.316;21.166;2022-07-06T03:07:43;18.50;99.90
25208;DHT22;13153;52.316;21.166;2022-07-06T03:10:09;18.40;99.90
25208;DHT22;13153;52.316;21.166;2022-07-06T03:12:34;18.40;99.90
25208;DHT22;13153;52.316;21.166;2022-07-06T03:15:00;18.30;99.90
25208;DHT22;13153;52.316;21.166;2022-07-06T03:17:26;18.30;99.90
25208;DHT22;13153;52.316;21.166;2022-07-06T03:19:52;18.30;99.90
25208;DHT22;13153;52.316;21.166;2022-07-06T03:22:18;18.30;99.90
25208;DHT22;13153;52.316;21.166;2022-07-06T03:24:44;18.20;99.90
25208;DHT22;13153;52.316;21.166;2022-07-06T03:27:10;18.20;99.90
25208;DHT22;13153;52.316;21.166;2022-07-06T03:29:35;18.30;99.90
25208;DHT22;13153;52.316;21.166;2022-07-06T03:32:01;18.30;99.90
25208;DHT22;13153;52.316;21.166;2022-07-06T03:34:27;18.30;99.90
25208;DHT22;13153;52.316;21.166;2022-07-06T03:36:53;18.30;99.90
25208;DHT22;13153;52.316;21.166;2022-07-06T03:39:19;18.20;99.90
25208;DHT22;13153;52.316;21.166;2022-07-06T03:41:44;18.20;99.90
25208;DHT22;13153;52.316;21.166;2022-07-06T03:44:10;18.10;99.90
25208;DHT22;13153;52.316;21.166;2022-07-06T03:46:36;18.10;99.90
25208;DHT22;13153;52.316;21.166;2022-07-06T03:49:02;18.10;99.90
25208;DHT22;13153;52.316;21.166;2022-07-06T03:51:27;18.10;99.90
25208;DHT22;13153;52.316;21.166;2022-07-06T03:53:53;18.00;99.90
25208;DHT22;13153;52.316;21.166;2022-07-06T03:56:19;18.00;99.90
25208;DHT22;13153;52.316;21.166;2022-07-06T03:58:59;18.00;99.90
25208;DHT22;13153;52.316;21.166;2022-07-06T04:01:26;17.90;99.90
25208;DHT22;13153;52.316;21.166;2022-07-06T04:03:52;17.90;99.90
25208;DHT22;13153;52.316;21.166;2022-07-06T04:06:19;17.80;99.90
25208;DHT22;13153;52.316;21.166;2022-07-06T04:08:45;17.70;99.90
25208;DHT22;13153;52.316;21.166;2022-07-06T04:11:10;17.80;99.90
25208;DHT22;13153;52.316;21.166;2022-07-06T04:13:37;17.80;99.90
25208;DHT22;13153;52.316;21.166;2022-07-06T04:18:48;17.90;99.90
25208;DHT22;13153;52.316;21.166;2022-07-06T04:21:14;18.00;99.90
25208;DHT22;13153;52.316;21.166;2022-07-06T04:23:40;18.10;99.90
25208;DHT22;13153;52.316;21.166;2022-07-06T04:26:06;18.20;99.90
25208;DHT22;13153;52.316;21.166;2022-07-06T04:28:31;18.30;99.90
25208;DHT22;13153;52.316;21.166;2022-07-06T04:30:57;18.40;99.90
25208;DHT22;13153;52.316;21.166;2022-07-06T04:33:23;18.40;99.90
25208;DHT22;13153;52.316;21.166;2022-07-06T04:35:49;18.50;99.90
25208;DHT22;13153;52.316;21.166;2022-07-06T04:38:14;18.50;99.90
25208;DHT22;13153;52.316;21.166;2022-07-06T04:40:40;18.60;99.90
25208;DHT22;13153;52.316;21.166;2022-07-06T04:43:06;18.60;99.90
25208;DHT22;13153;52.316;21.166;2022-07-06T04:45:32;18.70;99.90
25208;DHT22;13153;52.316;21.166;2022-07-06T04:47:58;18.80;99.90
25208;DHT22;13153;52.316;21.166;2022-07-06T04:50:24;18.80;99.90
25208;DHT22;13153;52.316;21.166;2022-07-06T04:52:50;18.80;99.90
25208;DHT22;13153;52.316;21.166;2022-07-06T04:55:15;18.80;99.90
25208;DHT22;13153;52.316;21.166;2022-07-06T04:57:41;18.80;99.90
25208;DHT22;13153;52.316;21.166;2022-07-06T05:00:07;18.90;99.90
25208;DHT22;13153;52.316;21.166;2022-07-06T05:02:34;18.90;99.90
25208;DHT22;13153;52.316;21.166;2022-07-06T05:04:59;18.90;99.90
25208;DHT22;13153;52.316;21.166;2022-07-06T05:07:25;19.00;99.90
25208;DHT22;13153;52.316;21.166;2022-07-06T05:09:55;19.00;99.90
25208;DHT22;13153;52.316;21.166;2022-07-06T05:12:21;19.10;99.90
25208;DHT22;13153;52.316;21.166;2022-07-06T05:14:47;19.10;99.90
25208;DHT22;13153;52.316;21.166;2022-07-06T05:17:12;19.10;99.90
25208;DHT22;13153;52.316;21.166;2022-07-06T05:19:38;19.20;99.90
25208;DHT22;13153;52.316;21.166;2022-07-06T05:22:04;19.10;99.90
25208;DHT22;13153;52.316;21.166;2022-07-06T05:24:29;19.00;99.90
25208;DHT22;13153;52.316;21.166;2022-07-06T05:26:55;18.80;99.90
25208;DHT22;13153;52.316;21.166;2022-07-06T05:29:21;18.70;99.90
25208;DHT22;13153;52.316;21.166;2022-07-06T05:31:46;18.60;99.90
25208;DHT22;13153;52.316;21.166;2022-07-06T05:34:12;18.60;99.90
25208;DHT22;13153;52.316;21.166;2022-07-06T05:36:38;18.60;99.90
25208;DHT22;13153;52.316;21.166;2022-07-06T05:39:04;18.60;99.90
25208;DHT22;13153;52.316;21.166;2022-07-06T05:41:29;18.60;99.90
25208;DHT22;13153;52.316;21.166;2022-07-06T05:43:55;18.60;99.90
25208;DHT22;13153;52.316;21.166;2022-07-06T05:46:21;18.60;99.90
25208;DHT22;13153;52.316;21.166;2022-07-06T05:48:46;18.60;99.90
25208;DHT22;13153;52.316;21.166;2022-07-06T05:51:31;18.60;99.90
25208;DHT22;13153;52.316;21.166;2022-07-06T05:53:57;18.70;99.90
25208;DHT22;13153;52.316;21.166;2022-07-06T05:56:23;18.80;99.90
25208;DHT22;13153;52.316;21.166;2022-07-06T05:58:49;19.00;99.90
25208;DHT22;13153;52.316;21.166;2022-07-06T06:01:15;19.20;99.90
25208;DHT22;13153;52.316;21.166;2022-07-06T06:03:40;19.20;99.90
25208;DHT22;13153;52.316;21.166;2022-07-06T06:06:06;19.30;99.90
25208;DHT22;13153;52.316;21.166;2022-07-06T06:08:32;19.40;99.90
25208;DHT22;13153;52.316;21.166;2022-07-06T06:10:58;19.70;99.90
25208;DHT22;13153;52.316;21.166;2022-07-06T06:13:24;19.80;99.90
25208;DHT22;13153;52.316;21.166;2022-07-06T06:15:49;19.90;99.90
25208;DHT22;13153;52.316;21.166;2022-07-06T06:18:15;19.90;99.90
25208;DHT22;13153;52.316;21.166;2022-07-06T06:20:44;20.00;99.90
25208;DHT22;13153;52.316;21.166;2022-07-06T06:23:11;19.90;99.90
25208;DHT22;13153;52.316;21.166;2022-07-06T06:25:38;19.80;99.90
25208;DHT22;13153;52.316;21.166;2022-07-06T06:28:06;19.70;99.90
25208;DHT22;13153;52.316;21.166;2022-07-06T06:30:33;19.60;99.90
25208;DHT22;13153;52.316;21.166;2022-07-06T06:33:07;19.60;99.90
25208;DHT22;13153;52.316;21.166;2022-07-06T06:35:33;19.60;99.90
25208;DHT22;13153;52.316;21.166;2022-07-06T06:37:59;19.70;99.90
25208;DHT22;13153;52.316;21.166;2022-07-06T06:40:25;19.90;99.90
25208;DHT22;13153;52.316;21.166;2022-07-06T06:42:51;20.00;99.90
25208;DHT22;13153;52.316;21.166;2022-07-06T06:45:16;20.10;99.90
25208;DHT22;13153;52.316;21.166;2022-07-06T06:47:42;20.20;99.90
25208;DHT22;13153;52.316;21.166;2022-07-06T06:50:08;20.20;99.90
25208;DHT22;13153;52.316;21.166;2022-07-06T06:52:34;20.10;99.90
25208;DHT22;13153;52.316;21.166;2022-07-06T06:54:59;20.10;99.90
25208;DHT22;13153;52.316;21.166;2022-07-06T06:57:25;20.10;99.90
25208;DHT22;13153;52.316;21.166;2022-07-06T06:59:51;20.00;99.90
25208;DHT22;13153;52.316;21.166;2022-07-06T07:02:17;20.00;99.90
25208;DHT22;13153;52.316;21.166;2022-07-06T07:04:43;20.00;99.90
25208;DHT22;13153;52.316;21.166;2022-07-06T07:07:08;20.10;99.90
25208;DHT22;13153;52.316;21.166;2022-07-06T07:09:34;20.20;99.90
25208;DHT22;13153;52.316;21.166;2022-07-06T07:12:00;20.20;99.90
25208;DHT22;13153;52.316;21.166;2022-07-06T07:14:26;20.60;99.90
25208;DHT22;13153;52.316;21.166;2022-07-06T07:16:53;22.50;99.90
25208;DHT22;13153;52.316;21.166;2022-07-06T07:19:18;24.30;99.90
25208;DHT22;13153;52.316;21.166;2022-07-06T07:21:44;26.90;99.90
25208;DHT22;13153;52.316;21.166;2022-07-06T07:24:10;28.20;99.90
25208;DHT22;13153;52.316;21.166;2022-07-06T07:26:36;28.50;99.90
25208;DHT22;13153;52.316;21.166;2022-07-06T07:29:02;28.20;99.90
25208;DHT22;13153;52.316;21.166;2022-07-06T07:31:27;27.50;99.90
25208;DHT22;13153;52.316;21.166;2022-07-06T07:33:53;27.60;99.90
25208;DHT22;13153;52.316;21.166;2022-07-06T07:36:22;29.40;99.90
25208;DHT22;13153;52.316;21.166;2022-07-06T07:38:49;31.50;99.90
25208;DHT22;13153;52.316;21.166;2022-07-06T07:41:15;33.20;95.60
25208;DHT22;13153;52.316;21.166;2022-07-06T07:43:42;34.70;87.50
25208;DHT22;13153;52.316;21.166;2022-07-06T07:46:08;35.70;80.80
25208;DHT22;13153;52.316;21.166;2022-07-06T07:48:34;36.30;74.90
25208;DHT22;13153;52.316;21.166;2022-07-06T07:51:00;36.30;70.60
25208;DHT22;13153;52.316;21.166;2022-07-06T07:53:26;36.30;68.50
25208;DHT22;13153;52.316;21.166;2022-07-06T07:55:52;36.00;68.20
25208;DHT22;13153;52.316;21.166;2022-07-06T07:58:18;35.00;66.50
25208;DHT22;13153;52.316;21.166;2022-07-06T08:00:44;33.60;66.00
25208;DHT22;13153;52.316;21.166;2022-07-06T08:03:10;32.60;73.40
25208;DHT22;13153;52.316;21.166;2022-07-06T08:05:35;32.00;73.90
25208;DHT22;13153;52.316;21.166;2022-07-06T08:08:02;31.30;78.10
25208;DHT22;13153;52.316;21.166;2022-07-06T08:10:27;30.70;82.10
25208;DHT22;13153;52.316;21.166;2022-07-06T08:12:53;30.50;81.40
25208;DHT22;13153;52.316;21.166;2022-07-06T08:15:19;30.30;82.80
25208;DHT22;13153;52.316;21.166;2022-07-06T08:17:45;29.80;81.30
25208;DHT22;13153;52.316;21.166;2022-07-06T08:20:11;29.00;79.50
25208;DHT22;13153;52.316;21.166;2022-07-06T08:22:37;28.10;81.70
25208;DHT22;13153;52.316;21.166;2022-07-06T08:25:04;27.60;84.50
25208;DHT22;13153;52.316;21.166;2022-07-06T08:27:31;27.20;85.10
25208;DHT22;13153;52.316;21.166;2022-07-06T08:29:56;26.70;87.80
25208;DHT22;13153;52.316;21.166;2022-07-06T08:32:22;26.60;90.90
25208;DHT22;13153;52.316;21.166;2022-07-06T08:34:48;26.60;90.30
25208;DHT22;13153;52.316;21.166;2022-07-06T08:37:14;26.60;91.50
25208;DHT22;13153;52.316;21.166;2022-07-06T08:39:39;26.50;92.40
25208;DHT22;13153;52.316;21.166;2022-07-06T08:42:07;26.20;92.90
25208;DHT22;13153;52.316;21.166;2022-07-06T08:44:36;26.30;94.50
25208;DHT22;13153;52.316;21.166;2022-07-06T08:47:05;26.60;94.50
25208;DHT22;13153;52.316;21.166;2022-07-06T08:49:33;26.70;91.30
25208;DHT22;13153;52.316;21.166;2022-07-06T08:52:01;26.80;93.00
25208;DHT22;13153;52.316;21.166;2022-07-06T08:54:28;26.80;93.00
25208;DHT22;13153;52.316;21.166;2022-07-06T08:56:54;26.80;93.00
25208;DHT22;13153;52.316;21.166;2022-07-06T08:59:21;26.90;94.40
25208;DHT22;13153;52.316;21.166;2022-07-06T09:01:46;27.00;93.30
25208;DHT22;13153;52.316;21.166;2022-07-06T09:04:15;27.00;93.10
25208;DHT22;13153;52.316;21.166;2022-07-06T09:06:43;27.10;93.40
25208;DHT22;13153;52.316;21.166;2022-07-06T09:09:19;27.20;90.10
25208;DHT22;13153;52.316;21.166;2022-07-06T09:11:46;27.10;86.10
25208;DHT22;13153;52.316;21.166;2022-07-06T09:14:13;27.00;89.70
25208;DHT22;13153;52.316;21.166;2022-07-06T09:16:39;27.10;89.10
25208;DHT22;13153;52.316;21.166;2022-07-06T09:19:10;27.00;88.50
25208;DHT22;13153;52.316;21.166;2022-07-06T09:21:36;26.90;87.80
25208;DHT22;13153;52.316;21.166;2022-07-06T09:24:06;27.00;91.20
25208;DHT22;13153;52.316;21.166;2022-07-06T09:26:36;26.90;90.80
25208;DHT22;13153;52.316;21.166;2022-07-06T09:29:02;26.70;88.10
25208;DHT22;13153;52.316;21.166;2022-07-06T09:31:28;26.50;90.20
25208;DHT22;13153;52.316;21.166;2022-07-06T09:39:29;26.30;90.70
25208;DHT22;13153;52.316;21.166;2022-07-06T09:41:57;26.30;86.00
25208;DHT22;13153;52.316;21.166;2022-07-06T09:44:25;26.20;82.90
25208;DHT22;13153;52.316;21.166;2022-07-06T09:46:58;26.20;87.10
25208;DHT22;13153;52.316;21.166;2022-07-06T09:49:30;26.10;87.90
25208;DHT22;13153;52.316;21.166;2022-07-06T09:51:58;26.00;90.60
25208;DHT22;13153;52.316;21.166;2022-07-06T09:54:26;25.90;90.20
25208;DHT22;13153;52.316;21.166;2022-07-06T09:56:53;25.70;87.50
25208;DHT22;13153;52.316;21.166;2022-07-06T09:59:22;25.70;90.50
25208;DHT22;13153;52.316;21.166;2022-07-06T10:01:54;25.70;91.00
25208;DHT22;13153;52.316;21.166;2022-07-06T10:04:22;25.80;90.50
25208;DHT22;13153;52.316;21.166;2022-07-06T10:06:50;25.80;90.90
25208;DHT22;13153;52.316;21.166;2022-07-06T10:09:18;25.80;84.40
25208;DHT22;13153;52.316;21.166;2022-07-06T10:11:57;25.70;82.40
25208;DHT22;13153;52.316;21.166;2022-07-06T10:14:27;25.70;85.90
25208;DHT22;13153;52.316;21.166;2022-07-06T10:17:02;25.70;86.70
25208;DHT22;13153;52.316;21.166;2022-07-06T10:19:31;25.80;82.90
25208;DHT22;13153;52.316;21.166;2022-07-06T10:22:02;25.90;84.80
25208;DHT22;13153;52.316;21.166;2022-07-06T10:24:30;26.00;85.10
25208;DHT22;13153;52.316;21.166;2022-07-06T10:27:04;26.10;84.70
25208;DHT22;13153;52.316;21.166;2022-07-06T10:29:31;26.30;80.80
25208;DHT22;13153;52.316;21.166;2022-07-06T10:31:59;26.30;78.50
25208;DHT22;13153;52.316;21.166;2022-07-06T10:34:26;26.20;81.50
25208;DHT22;13153;52.316;21.166;2022-07-06T10:37:25;26.20;80.80
25208;DHT22;13153;52.316;21.166;2022-07-06T10:39:52;26.20;79.20
25208;DHT22;13153;52.316;21.166;2022-07-06T10:42:45;26.10;78.40
25208;DHT22;13153;52.316;21.166;2022-07-06T10:50:54;25.50;78.90
25208;DHT22;13153;52.316;21.166;2022-07-06T10:55:52;25.20;82.10
25208;DHT22;13153;52.316;21.166;2022-07-06T11:01:03;25.20;82.40
25208;DHT22;13153;52.316;21.166;2022-07-06T11:11:18;24.90;81.30
25208;DHT22;13153;52.316;21.166;2022-07-06T11:14:10;24.90;81.80
25208;DHT22;13153;52.316;21.166;2022-07-06T11:19:14;25.10;80.30
25208;DHT22;13153;52.316;21.166;2022-07-06T11:24:34;25.40;80.80
25208;DHT22;13153;52.316;21.166;2022-07-06T11:27:02;25.40;79.80
25208;DHT22;13153;52.316;21.166;2022-07-06T11:29:29;25.40;78.60
25208;DHT22;13153;52.316;21.166;2022-07-06T11:31:57;25.30;79.60
25208;DHT22;13153;52.316;21.166;2022-07-06T11:34:30;25.20;79.00
25208;DHT22;13153;52.316;21.166;2022-07-06T11:37:02;25.10;78.60
25208;DHT22;13153;52.316;21.166;2022-07-06T11:39:31;25.00;78.20
25208;DHT22;13153;52.316;21.166;2022-07-06T11:41:59;25.00;80.10
25208;DHT22;13153;52.316;21.166;2022-07-06T11:44:26;25.00;82.10
25208;DHT22;13153;52.316;21.166;2022-07-06T11:46:53;25.20;81.80
25208;DHT22;13153;52.316;21.166;2022-07-06T11:49:22;25.40;79.40
25208;DHT22;13153;52.316;21.166;2022-07-06T11:51:47;25.40;80.30
25208;DHT22;13153;52.316;21.166;2022-07-06T11:54:15;25.40;80.80
25208;DHT22;13153;52.316;21.166;2022-07-06T11:56:53;25.40;82.60
25208;DHT22;13153;52.316;21.166;2022-07-06T11:59:28;25.40;84.00
25208;DHT22;13153;52.316;21.166;2022-07-06T12:02:05;25.30;79.40
25208;DHT22;13153;52.316;21.166;2022-07-06T12:04:33;25.30;78.90
25208;DHT22;13153;52.316;21.166;2022-07-06T12:07:05;25.20;79.40
25208;DHT22;13153;52.316;21.166;2022-07-06T12:09:34;25.20;79.00
25208;DHT22;13153;52.316;21.166;2022-07-06T12:12:01;25.10;80.30
25208;DHT22;13153;52.316;21.166;2022-07-06T12:14:30;25.00;79.70
25208;DHT22;13153;52.316;21.166;2022-07-06T12:17:09;25.00;83.80
25208;DHT22;13153;52.316;21.166;2022-07-06T12:19:36;25.10;83.70
25208;DHT22;13153;52.316;21.166;2022-07-06T12:22:04;25.20;83.20
25208;DHT22;13153;52.316;21.166;2022-07-06T12:24:32;25.10;81.40
25208;DHT22;13153;52.316;21.166;2022-07-06T12:27:12;25.00;80.00
25208;DHT22;13153;52.316;21.166;2022-07-06T12:29:39;24.90;79.90
25208;DHT22;13153;52.316;21.166;2022-07-06T12:32:06;24.90;78.70
25208;DHT22;13153;52.316;21.166;2022-07-06T12:34:32;24.80;79.20
25208;DHT22;13153;52.316;21.166;2022-07-06T12:37:08;24.80;77.50
25208;DHT22;13153;52.316;21.166;2022-07-06T12:39:44;24.80;80.00
25208;DHT22;13153;52.316;21.166;2022-07-06T12:42:17;25.00;80.50
25208;DHT22;13153;52.316;21.166;2022-07-06T12:44:47;25.10;81.80
25208;DHT22;13153;52.316;21.166;2022-07-06T12:47:18;25.20;83.10
25208;DHT22;13153;52.316;21.166;2022-07-06T12:50:11;25.20;81.10
25208;DHT22;13153;52.316;21.166;2022-07-06T12:52:37;25.10;82.10
25208;DHT22;13153;52.316;21.166;2022-07-06T12:55:05;25.00;81.70
25208;DHT22;13153;52.316;21.166;2022-07-06T12:57:47;24.90;79.80
25208;DHT22;13153;52.316;21.166;2022-07-06T13:00:14;24.80;80.20
25208;DHT22;13153;52.316;21.166;2022-07-06T13:02:44;24.70;80.10
25208;DHT22;13153;52.316;21.166;2022-07-06T13:05:13;24.70;81.50
25208;DHT22;13153;52.316;21.166;2022-07-06T13:07:46;24.70;80.00
25208;DHT22;13153;52.316;21.166;2022-07-06T13:10:14;24.70;78.50
25208;DHT22;13153;52.316;21.166;2022-07-06T13:12:41;24.80;80.40
25208;DHT22;13153;52.316;21.166;2022-07-06T13:15:08;24.80;81.00
25208;DHT22;13153;52.316;21.166;2022-07-06T13:17:35;24.80;80.50
25208;DHT22;13153;52.316;21.166;2022-07-06T13:20:03;24.80;80.40
25208;DHT22;13153;52.316;21.166;2022-07-06T13:22:30;24.90;90.60
25208;DHT22;13153;52.316;21.166;2022-07-06T13:24:56;24.90;91.40
25208;DHT22;13153;52.316;21.166;2022-07-06T13:27:21;24.90;84.30
25208;DHT22;13153;52.316;21.166;2022-07-06T13:29:47;25.00;82.90
25208;DHT22;13153;52.316;21.166;2022-07-06T13:32:13;25.00;82.80
25208;DHT22;13153;52.316;21.166;2022-07-06T13:34:39;25.00;86.20
25208;DHT22;13153;52.316;21.166;2022-07-06T13:37:05;24.90;80.40
25208;DHT22;13153;52.316;21.166;2022-07-06T13:39:32;24.90;87.40
25208;DHT22;13153;52.316;21.166;2022-07-06T13:41:58;24.90;90.50
25208;DHT22;13153;52.316;21.166;2022-07-06T13:44:24;24.90;85.20
25208;DHT22;13153;52.316;21.166;2022-07-06T13:46:50;25.00;91.60
25208;DHT22;13153;52.316;21.166;2022-07-06T13:49:16;24.90;83.90
25208;DHT22;13153;52.316;21.166;2022-07-06T13:51:43;24.90;86.00
25208;DHT22;13153;52.316;21.166;2022-07-06T13:54:09;24.90;83.50
25208;DHT22;13153;52.316;21.166;2022-07-06T13:56:37;24.80;82.10
25208;DHT22;13153;52.316;21.166;2022-07-06T13:59:05;24.80;84.20
25208;DHT22;13153;52.316;21.166;2022-07-06T14:01:31;24.80;84.40
25208;DHT22;13153;52.316;21.166;2022-07-06T14:03:57;24.80;90.50
25208;DHT22;13153;52.316;21.166;2022-07-06T14:06:23;24.90;84.90
25208;DHT22;13153;52.316;21.166;2022-07-06T14:08:49;24.90;88.90
25208;DHT22;13153;52.316;21.166;2022-07-06T14:11:15;25.00;90.30
25208;DHT22;13153;52.316;21.166;2022-07-06T14:13:41;25.00;88.50
25208;DHT22;13153;52.316;21.166;2022-07-06T14:16:07;25.00;89.60
25208;DHT22;13153;52.316;21.166;2022-07-06T14:18:33;24.90;91.40
25208;DHT22;13153;52.316;21.166;2022-07-06T14:20:58;24.80;91.20
25208;DHT22;13153;52.316;21.166;2022-07-06T14:23:26;24.80;90.80
25208;DHT22;13153;52.316;21.166;2022-07-06T14:25:53;24.80;89.70
25208;DHT22;13153;52.316;21.166;2022-07-06T14:28:20;24.80;91.30
25208;DHT22;13153;52.316;21.166;2022-07-06T14:30:46;24.70;92.50
25208;DHT22;13153;52.316;21.166;2022-07-06T14:33:13;24.70;90.40
25208;DHT22;13153;52.316;21.166;2022-07-06T14:35:47;24.60;90.80
25208;DHT22;13153;52.316;21.166;2022-07-06T14:38:16;24.60;91.70
25208;DHT22;13153;52.316;21.166;2022-07-06T14:40:43;24.50;92.00
25208;DHT22;13153;52.316;21.166;2022-07-06T14:43:10;24.50;91.90
25208;DHT22;13153;52.316;21.166;2022-07-06T14:45:36;24.40;91.00
25208;DHT22;13153;52.316;21.166;2022-07-06T14:48:03;24.30;90.90
25208;DHT22;13153;52.316;21.166;2022-07-06T14:50:31;24.20;90.90
25208;DHT22;13153;52.316;21.166;2022-07-06T14:52:57;24.10;90.20
25208;DHT22;13153;52.316;21.166;2022-07-06T14:55:23;24.00;92.50
25208;DHT22;13153;52.316;21.166;2022-07-06T14:57:49;23.90;93.60
25208;DHT22;13153;52.316;21.166;2022-07-06T15:00:15;23.80;92.10
25208;DHT22;13153;52.316;21.166;2022-07-06T15:02:42;23.80;92.70
25208;DHT22;13153;52.316;21.166;2022-07-06T15:05:09;23.70;93.20
25208;DHT22;13153;52.316;21.166;2022-07-06T15:07:36;23.70;90.30
25208;DHT22;13153;52.316;21.166;2022-07-06T15:10:03;23.60;86.70
25208;DHT22;13153;52.316;21.166;2022-07-06T15:12:30;23.60;90.50
25208;DHT22;13153;52.316;21.166;2022-07-06T15:14:56;23.60;90.70
25208;DHT22;13153;52.316;21.166;2022-07-06T15:17:22;23.60;90.90
25208;DHT22;13153;52.316;21.166;2022-07-06T15:19:48;23.60;91.60
25208;DHT22;13153;52.316;21.166;2022-07-06T15:22:14;23.50;91.50
25208;DHT22;13153;52.316;21.166;2022-07-06T15:24:40;23.50;86.90
25208;DHT22;13153;52.316;21.166;2022-07-06T15:27:06;23.50;91.20
25208;DHT22;13153;52.316;21.166;2022-07-06T15:29:33;23.50;91.70
25208;DHT22;13153;52.316;21.166;2022-07-06T15:31:59;23.50;89.20
25208;DHT22;13153;52.316;21.166;2022-07-06T15:34:25;23.50;91.80
25208;DHT22;13153;52.316;21.166;2022-07-06T15:36:51;23.40;91.60
25208;DHT22;13153;52.316;21.166;2022-07-06T15:39:17;23.40;91.00
25208;DHT22;13153;52.316;21.166;2022-07-06T15:41:43;23.40;89.70
25208;DHT22;13153;52.316;21.166;2022-07-06T15:44:09;23.40;90.00
25208;DHT22;13153;52.316;21.166;2022-07-06T15:46:35;23.40;91.40
25208;DHT22;13153;52.316;21.166;2022-07-06T15:49:02;23.30;90.00
25208;DHT22;13153;52.316;21.166;2022-07-06T15:51:29;23.30;90.60